Time;durP1;ratioP1;P1;durP2;ratioP2;P2;SDS_P1;SDS_P2;PMS_P1;PMS_P2;Temp;Humidity;BMP_temperature;BMP_pressure;BME280_temperature;BME280_humidity;BME280_pressure;Samples;Min_cycle;Max_cycle;Signal;HPM_P1;HPM_P2
2023/03/19 00:01:05;;;;;;;21.77;11.88;;;;;;;10.08;nan;101194.13;4998507;28;20022;-53
2023/03/19 00:03:31;;;;;;;23.60;12.45;;;;;;;10.07;nan;101203.78;4998796;28;20041;-58
2023/03/19 00:05:56;;;;;;;20.17;12.02;;;;;;;10.00;nan;101202.38;4989289;28;20031;-52
2023/03/19 00:08:22;;;;;;;20.77;11.82;;;;;;;9.99;nan;101205.94;4997120;28;20050;-56
2023/03/19 00:10:48;;;;;;;21.65;11.65;;;;;;;9.97;nan;101210.41;4991456;28;20034;-56
2023/03/19 00:13:14;;;;;;;22.23;13.25;;;;;;;9.96;nan;101207.88;4993778;28;20033;-60
2023/03/19 00:15:40;;;;;;;23.27;12.23;;;;;;;9.94;nan;101201.81;4991281;28;20112;-56
2023/03/19 00:18:06;;;;;;;23.75;12.90;;;;;;;9.94;nan;101197.41;5000355;28;20468;-56
2023/03/19 00:20:31;;;;;;;27.65;12.82;;;;;;;9.89;nan;101207.31;4993243;28;20048;-56
2023/03/19 00:22:57;;;;;;;26.95;13.52;;;;;;;9.86;nan;101199.56;4997973;28;20038;-57
2023/03/19 00:25:23;;;;;;;23.27;12.10;;;;;;;9.79;nan;101206.88;5002393;28;20435;-56
2023/03/19 00:27:48;;;;;;;25.13;13.50;;;;;;;9.77;nan;101199.06;4993643;28;20033;-56
2023/03/19 00:30:14;;;;;;;23.83;12.93;;;;;;;9.78;nan;101199.91;4989133;28;20022;-57
2023/03/19 00:32:40;;;;;;;26.10;14.38;;;;;;;9.78;nan;101192.03;4991782;28;20038;-58
2023/03/19 00:35:06;;;;;;;24.77;13.35;;;;;;;9.76;nan;101202.59;4996178;28;20038;-57
2023/03/19 00:37:32;;;;;;;19.38;11.52;;;;;;;9.72;nan;101197.56;4995068;28;20041;-56
2023/03/19 00:39:58;;;;;;;20.90;12.55;;;;;;;9.70;nan;101202.03;4991374;28;20021;-59
2023/03/19 00:42:24;;;;;;;22.60;12.65;;;;;;;9.64;nan;101187.41;4993073;28;20120;-57
2023/03/19 00:44:49;;;;;;;24.42;13.10;;;;;;;9.60;nan;101191.97;4990477;28;20105;-56
2023/03/19 00:47:15;;;;;;;21.60;11.75;;;;;;;9.59;nan;101194.69;4985573;28;20018;-59
2023/03/19 00:49:40;;;;;;;23.52;12.15;;;;;;;9.55;nan;101193.13;5001656;28;20059;-57
2023/03/19 00:52:06;;;;;;;23.27;12.02;;;;;;;9.48;nan;101187.28;4992147;28;20539;-58
2023/03/19 00:54:32;;;;;;;25.95;12.57;;;;;;;9.43;nan;101182.25;4982831;28;20481;-55
2023/03/19 00:56:58;;;;;;;20.65;11.35;;;;;;;9.40;nan;101178.91;4993068;28;20371;-56
2023/03/19 00:59:24;;;;;;;22.90;12.13;;;;;;;9.38;nan;101175.47;4984350;28;20053;-55
2023/03/19 01:01:50;;;;;;;19.48;11.80;;;;;;;9.33;nan;101177.47;4987271;28;20137;-55
2023/03/19 01:04:16;;;;;;;26.25;12.70;;;;;;;9.27;nan;101184.72;4987462;28;20029;-56
2023/03/19 01:06:42;;;;;;;21.17;11.75;;;;;;;9.22;nan;101188.47;4988374;28;20030;-58
2023/03/19 01:09:08;;;;;;;26.52;13.20;;;;;;;9.25;nan;101185.72;4988753;28;20081;-55
2023/03/19 01:11:34;;;;;;;24.60;12.48;;;;;;;9.28;nan;101185.56;4987425;28;20042;-54
2023/03/19 01:14:00;;;;;;;23.20;11.77;;;;;;;9.30;nan;101192.44;4997096;28;20026;-59
2023/03/19 01:16:26;;;;;;;23.17;11.98;;;;;;;9.34;nan;101185.28;4996292;28;20030;-55
2023/03/19 01:18:52;;;;;;;22.38;11.88;;;;;;;9.32;nan;101186.28;4986691;28;20030;-57
2023/03/19 01:21:18;;;;;;;24.42;12.68;;;;;;;9.33;nan;101182.75;4987649;28;20108;-57
2023/03/19 01:23:43;;;;;;;20.75;12.15;;;;;;;9.36;nan;101188.69;4991565;28;20144;-56
2023/03/19 01:26:09;;;;;;;19.33;11.77;;;;;;;9.35;nan;101187.00;4981470;28;20038;-59
2023/03/19 01:28:35;;;;;;;20.92;11.82;;;;;;;9.38;nan;101197.34;4995812;28;20031;-61
2023/03/19 01:31:04;;;;;;;19.25;10.70;;;;;;;9.38;nan;101196.50;4990326;28;20099;-62
2023/03/19 01:33:30;;;;;;;19.48;12.85;;;;;;;9.38;nan;101191.25;4994866;28;20042;-59
2023/03/19 01:35:56;;;;;;;21.13;12.05;;;;;;;9.36;nan;101191.31;4987430;28;20041;-60
2023/03/19 01:38:22;;;;;;;24.60;12.80;;;;;;;9.27;nan;101204.88;4989241;28;20124;-61
2023/03/19 01:40:48;;;;;;;18.77;12.30;;;;;;;9.21;nan;101192.88;4986656;28;20408;-57
2023/03/19 01:43:21;;;;;;;32.15;13.50;;;;;;;9.21;nan;101195.50;4989860;28;20046;-60
2023/03/19 01:45:48;;;;;;;29.08;13.55;;;;;;;9.25;nan;101196.22;4990803;28;20034;-56
2023/03/19 01:48:43;;;;;;;30.55;14.77;;;;;;;9.23;nan;101195.44;4988147;28;20091;-58
2023/03/19 01:51:12;;;;;;;25.45;12.10;;;;;;;9.21;nan;101195.50;4992188;28;20022;-58
2023/03/19 01:53:40;;;;;;;22.92;12.85;;;;;;;9.19;nan;101205.22;4987942;28;20034;-56
2023/03/19 01:56:16;;;;;;;26.33;12.77;;;;;;;9.21;nan;101210.38;4989028;28;20026;-56
2023/03/19 01:58:45;;;;;;;24.02;12.35;;;;;;;9.24;nan;101200.59;4992783;28;20033;-59
2023/03/19 02:01:11;;;;;;;26.88;11.82;;;;;;;9.23;nan;101205.94;4984041;28;20113;-56
2023/03/19 02:03:38;;;;;;;22.45;11.48;;;;;;;9.18;nan;101198.25;4986758;28;20397;-58
2023/03/19 02:06:04;;;;;;;20.42;11.95;;;;;;;9.13;nan;101202.84;4987307;28;20022;-55
2023/03/19 02:08:31;;;;;;;19.50;12.27;;;;;;;9.12;nan;101206.41;4989938;28;20033;-55
2023/03/19 02:10:59;;;;;;;26.25;12.82;;;;;;;9.12;nan;101202.00;4979532;28;20025;-60
2023/03/19 02:13:26;;;;;;;18.92;11.90;;;;;;;9.13;nan;101198.47;4990210;28;20041;-57
2023/03/19 02:15:53;;;;;;;20.25;12.48;;;;;;;9.13;nan;101202.84;4987308;28;20044;-59
2023/03/19 02:18:19;;;;;;;22.92;12.82;;;;;;;9.08;nan;101200.44;4996138;28;20027;-57
2023/03/19 02:20:58;;;;;;;21.92;12.35;;;;;;;9.06;nan;101196.19;4990255;28;20022;-57
2023/03/19 02:23:44;;;;;;;24.27;12.25;;;;;;;9.04;nan;101209.38;4984787;28;20022;-55
2023/03/19 02:26:13;;;;;;;20.83;11.80;;;;;;;9.04;nan;101204.09;4990066;28;20040;-56
2023/03/19 02:28:42;;;;;;;23.00;12.48;;;;;;;8.99;nan;101203.47;4991221;28;20129;-56
2023/03/19 02:31:09;;;;;;;24.40;12.80;;;;;;;8.95;nan;101202.75;4990841;28;20374;-60
2023/03/19 02:33:35;;;;;;;21.25;11.27;;;;;;;8.93;nan;101201.09;4991461;28;20200;-59
2023/03/19 02:36:02;;;;;;;25.98;13.05;;;;;;;8.84;nan;101200.59;4997584;28;20029;-58
2023/03/19 02:38:31;;;;;;;22.38;12.18;;;;;;;8.83;nan;101203.28;4985999;28;20556;-55
2023/03/19 02:41:03;;;;;;;20.02;12.18;;;;;;;8.81;nan;101203.34;4987734;28;20038;-57
2023/03/19 02:43:33;;;;;;;20.88;11.85;;;;;;;8.84;nan;101203.22;4996198;28;20165;-57
2023/03/19 02:46:00;;;;;;;20.23;12.30;;;;;;;8.83;nan;101200.66;4985521;28;20388;-56
2023/03/19 02:48:26;;;;;;;20.25;12.23;;;;;;;8.80;nan;101201.66;4976165;28;20061;-56
2023/03/19 02:50:51;;;;;;;25.42;12.95;;;;;;;8.79;nan;101201.69;4988553;28;20029;-56
2023/03/19 02:53:17;;;;;;;21.85;13.27;;;;;;;8.77;nan;101201.78;4982986;28;20042;-58
2023/03/19 02:55:43;;;;;;;22.65;12.40;;;;;;;8.76;nan;101200.06;4990213;28;20026;-57
2023/03/19 02:58:08;;;;;;;23.00;12.68;;;;;;;8.76;nan;101202.69;4992388;28;20034;-57
2023/03/19 03:00:34;;;;;;;26.83;13.80;;;;;;;8.79;nan;101210.44;4990759;28;20034;-56
2023/03/19 03:03:00;;;;;;;22.90;12.63;;;;;;;8.83;nan;101209.41;4992017;28;20052;-60
2023/03/19 03:05:26;;;;;;;21.50;12.77;;;;;;;8.82;nan;101207.69;4990828;28;20133;-60
2023/03/19 03:07:52;;;;;;;23.98;13.40;;;;;;;8.85;nan;101206.69;4989865;28;21090;-59
2023/03/19 03:10:18;;;;;;;21.70;12.48;;;;;;;8.88;nan;101205.69;4979823;28;20037;-55
2023/03/19 03:12:43;;;;;;;20.67;11.65;;;;;;;8.90;nan;101201.22;4986265;28;20041;-56
2023/03/19 03:15:09;;;;;;;20.17;12.55;;;;;;;8.92;nan;101209.91;4980499;28;20030;-57
2023/03/19 03:17:42;;;;;;;24.75;12.43;;;;;;;8.98;nan;101204.41;4992953;28;20488;-58
2023/03/19 03:20:10;;;;;;;21.08;12.23;;;;;;;9.01;nan;101209.50;4987016;28;20492;-56
2023/03/19 03:22:36;;;;;;;23.67;13.13;;;;;;;9.09;nan;101215.28;4994849;28;23355;-58
2023/03/19 03:25:03;;;;;;;24.27;13.43;;;;;;;9.13;nan;101208.97;4996890;28;20547;-58
2023/03/19 03:27:29;;;;;;;24.05;12.38;;;;;;;9.11;nan;101213.44;4990698;28;20062;-59
2023/03/19 03:29:54;;;;;;;21.77;12.90;;;;;;;9.11;nan;101218.69;4989326;28;20416;-57
2023/03/19 03:32:20;;;;;;;24.70;13.02;;;;;;;9.18;nan;101227.16;4991846;28;20042;-58
2023/03/19 03:34:46;;;;;;;21.45;12.27;;;;;;;9.24;nan;101226.84;4998919;28;20400;-56
2023/03/19 03:37:11;;;;;;;26.42;13.15;;;;;;;9.30;nan;101225.75;4987646;28;20034;-59
2023/03/19 03:39:37;;;;;;;20.58;12.93;;;;;;;9.22;nan;101217.34;4990933;28;20067;-58
2023/03/19 03:42:03;;;;;;;24.90;13.57;;;;;;;9.19;nan;101220.09;4986682;28;20030;-58
2023/03/19 03:44:28;;;;;;;22.73;12.82;;;;;;;9.10;nan;101216.97;5000728;28;20037;-58
2023/03/19 03:46:54;;;;;;;22.63;12.23;;;;;;;9.04;nan;101219.84;4990708;28;20026;-58
2023/03/19 03:49:20;;;;;;;24.35;13.90;;;;;;;9.00;nan;101220.91;4997417;28;20060;-57
2023/03/19 03:51:45;;;;;;;22.27;13.13;;;;;;;8.95;nan;101215.88;4988435;28;20228;-56
2023/03/19 03:54:11;;;;;;;23.75;12.85;;;;;;;8.94;nan;101214.16;4989739;28;20034;-58
2023/03/19 03:56:36;;;;;;;19.30;12.32;;;;;;;8.92;nan;101209.91;4990428;28;20046;-56
2023/03/19 03:59:02;;;;;;;20.15;13.43;;;;;;;8.88;nan;101209.19;4992204;28;20098;-57
2023/03/19 04:01:28;;;;;;;22.88;12.90;;;;;;;8.85;nan;101215.41;4992285;28;20054;-59
2023/03/19 04:03:53;;;;;;;20.08;11.90;;;;;;;8.80;nan;101206.91;4996602;28;20029;-59
2023/03/19 04:06:21;;;;;;;21.52;12.18;;;;;;;8.75;nan;101203.59;4997771;28;20038;-58
2023/03/19 04:08:47;;;;;;;22.20;11.82;;;;;;;8.74;nan;101195.81;4998449;28;20033;-57
2023/03/19 04:11:12;;;;;;;20.63;11.23;;;;;;;8.70;nan;101189.81;4985093;28;20030;-56
2023/03/19 04:13:38;;;;;;;32.58;14.27;;;;;;;8.69;nan;101183.72;4993347;28;20053;-59
2023/03/19 04:16:05;;;;;;;20.55;11.70;;;;;;;8.68;nan;101187.28;4980810;28;20046;-56
2023/03/19 04:18:31;;;;;;;19.67;12.75;;;;;;;8.73;nan;101184.44;4991474;28;20025;-58
2023/03/19 04:20:57;;;;;;;18.25;11.52;;;;;;;8.78;nan;101199.97;4986545;28;20030;-59
2023/03/19 04:23:23;;;;;;;23.90;12.95;;;;;;;8.82;nan;101196.31;4993195;28;20036;-56
2023/03/19 04:25:49;;;;;;;29.42;15.25;;;;;;;8.84;nan;101205.84;4990739;28;20030;-56
2023/03/19 04:28:15;;;;;;;24.83;13.48;;;;;;;8.85;nan;101204.06;4991906;28;20029;-55
2023/03/19 04:30:42;;;;;;;26.98;13.45;;;;;;;8.84;nan;101197.97;4988546;28;20042;-59
2023/03/19 04:33:08;;;;;;;23.38;12.63;;;;;;;8.83;nan;101195.41;4994169;28;20026;-57
2023/03/19 04:35:33;;;;;;;25.52;13.57;;;;;;;8.79;nan;101193.81;4990572;28;20038;-55
2023/03/19 04:37:59;;;;;;;23.05;12.18;;;;;;;8.74;nan;101191.41;4995926;28;20033;-58
2023/03/19 04:40:24;;;;;;;20.83;11.88;;;;;;;8.74;nan;101190.56;4989118;28;20029;-55
2023/03/19 04:42:50;;;;;;;16.55;8.18;;;;;;;8.72;nan;101192.41;4991504;28;20038;-55
2023/03/19 04:45:15;;;;;;;20.38;12.10;;;;;;;8.74;nan;101194.03;4988962;28;20358;-57
2023/03/19 04:47:41;;;;;;;20.05;11.57;;;;;;;8.75;nan;101193.09;4983597;28;20377;-58
2023/03/19 04:50:08;;;;;;;20.58;11.93;;;;;;;8.79;nan;101199.06;4982501;28;20084;-56
2023/03/19 04:52:36;;;;;;;23.95;13.93;;;;;;;8.82;nan;101196.31;4994499;28;20038;-55
2023/03/19 04:55:02;;;;;;;20.63;12.15;;;;;;;8.83;nan;101212.03;4988238;28;20476;-58
2023/03/19 04:57:27;;;;;;;24.92;14.27;;;;;;;8.84;nan;101202.34;4985667;28;20513;-58
2023/03/19 04:59:53;;;;;;;26.17;12.77;;;;;;;8.84;nan;101203.22;4982744;28;20034;-56
2023/03/19 05:02:19;;;;;;;22.00;11.65;;;;;;;8.88;nan;101210.94;4986276;28;20046;-58
2023/03/19 05:04:45;;;;;;;21.88;12.77;;;;;;;8.87;nan;101202.22;4992515;28;20447;-57
2023/03/19 05:07:10;;;;;;;22.40;12.07;;;;;;;8.89;nan;101207.41;4995078;28;20038;-57
2023/03/19 05:09:35;;;;;;;22.33;12.95;;;;;;;8.87;nan;101211.84;5000157;28;20472;-55
2023/03/19 05:12:01;;;;;;;27.23;12.73;;;;;;;8.81;nan;101219.09;4990241;28;20029;-58
2023/03/19 05:14:27;;;;;;;25.20;13.25;;;;;;;8.81;nan;101232.22;4990985;28;20095;-59
2023/03/19 05:16:53;;;;;;;24.25;12.93;;;;;;;8.83;nan;101254.00;4993884;28;20025;-59
2023/03/19 05:19:19;;;;;;;20.75;12.95;;;;;;;8.81;nan;101282.06;4987500;28;20044;-58
2023/03/19 05:21:44;;;;;;;20.20;11.50;;;;;;;8.76;nan;101252.53;4996373;28;20564;-59
2023/03/19 05:24:10;;;;;;;22.08;11.80;;;;;;;8.76;nan;101256.94;4989691;28;20037;-57
2023/03/19 05:26:36;;;;;;;20.40;11.65;;;;;;;8.81;nan;101279.44;4994917;28;20058;-58
2023/03/19 05:29:03;;;;;;;23.08;11.63;;;;;;;8.84;nan;101281.09;4993583;28;20060;-58
2023/03/19 05:31:29;;;;;;;21.70;11.32;;;;;;;8.84;nan;101271.47;4988857;28;20034;-58
2023/03/19 05:33:55;;;;;;;22.02;11.80;;;;;;;8.89;nan;101267.75;4991402;28;20608;-57
2023/03/19 05:36:21;;;;;;;18.55;11.15;;;;;;;8.97;nan;101286.69;4990656;28;20524;-58
2023/03/19 05:38:47;;;;;;;16.73;11.38;;;;;;;9.06;nan;101281.03;4992859;28;20119;-56
2023/03/19 05:41:12;;;;;;;20.02;10.23;;;;;;;9.08;nan;101273.94;4990541;28;20480;-60
2023/03/19 05:43:37;;;;;;;24.23;13.32;;;;;;;9.09;nan;101286.16;4991075;28;21004;-56
2023/03/19 05:46:03;;;;;;;19.20;11.65;;;;;;;9.10;nan;101282.63;4989770;28;20029;-56
2023/03/19 05:48:28;;;;;;;18.48;11.10;;;;;;;9.14;nan;101284.19;4995473;28;20030;-57
2023/03/19 05:50:55;;;;;;;21.15;11.25;;;;;;;9.16;nan;101278.88;4985407;28;20061;-61
2023/03/19 05:53:21;;;;;;;22.75;12.48;;;;;;;9.19;nan;101285.75;4985803;28;20060;-57
2023/03/19 05:55:47;;;;;;;23.73;11.52;;;;;;;9.22;nan;101283.00;4989553;28;20044;-59
2023/03/19 05:58:15;;;;;;;22.50;11.88;;;;;;;9.27;nan;101278.41;4988678;28;20022;-56
2023/03/19 06:00:41;;;;;;;25.88;12.50;;;;;;;9.31;nan;101285.22;4981617;28;20026;-60
2023/03/19 06:03:07;;;;;;;22.00;11.57;;;;;;;9.35;nan;101289.41;4989862;28;20096;-55
2023/03/19 06:05:32;;;;;;;23.10;12.27;;;;;;;9.41;nan;101286.53;4986760;28;20026;-58
2023/03/19 06:07:58;;;;;;;26.25;12.43;;;;;;;9.51;nan;101286.13;4991464;28;20021;-59
2023/03/19 06:10:23;;;;;;;24.85;13.18;;;;;;;9.60;nan;101281.31;4995471;28;20493;-61
2023/03/19 06:12:49;;;;;;;24.77;12.60;;;;;;;9.67;nan;101284.50;4990610;28;20447;-59
2023/03/19 06:15:14;;;;;;;24.20;13.20;;;;;;;9.69;nan;101285.28;4984772;28;20121;-60
2023/03/19 06:17:40;;;;;;;21.85;12.02;;;;;;;9.74;nan;101283.31;4989202;28;20038;-58
2023/03/19 06:20:05;;;;;;;21.52;12.15;;;;;;;9.79;nan;101290.13;4986194;28;20048;-60
2023/03/19 06:22:32;;;;;;;25.27;13.75;;;;;;;9.77;nan;101291.03;4995741;28;20184;-57
2023/03/19 06:24:58;;;;;;;27.38;14.85;;;;;;;9.80;nan;101286.56;4989556;28;20030;-58
2023/03/19 06:27:23;;;;;;;22.83;13.68;;;;;;;9.88;nan;101289.72;4994641;28;20030;-58
2023/03/19 06:29:49;;;;;;;27.70;12.88;;;;;;;9.92;nan;101299.16;4993235;28;20038;-63
2023/03/19 06:32:14;;;;;;;25.52;13.80;;;;;;;9.95;nan;101299.00;4990653;28;20045;-59
2023/03/19 06:34:40;;;;;;;25.13;12.75;;;;;;;10.00;nan;101304.91;4987645;28;20029;-59
2023/03/19 06:37:06;;;;;;;23.23;13.75;;;;;;;10.04;nan;101305.63;4995442;28;20253;-57
2023/03/19 06:39:31;;;;;;;24.27;13.77;;;;;;;10.10;nan;101315.88;4993003;28;20038;-61
2023/03/19 06:41:57;;;;;;;22.30;11.52;;;;;;;10.16;nan;101317.34;4989755;28;20124;-60
2023/03/19 06:44:24;;;;;;;23.80;13.13;;;;;;;10.29;nan;101318.47;4984124;28;20030;-62
2023/03/19 06:46:50;;;;;;;23.23;11.88;;;;;;;10.43;nan;101327.53;4998222;28;20042;-58
2023/03/19 06:49:15;;;;;;;20.73;11.60;;;;;;;10.52;nan;101332.31;4993568;28;20041;-59
2023/03/19 06:51:41;;;;;;;26.20;13.05;;;;;;;10.70;nan;101341.13;4992082;28;20034;-60
2023/03/19 06:54:06;;;;;;;22.50;12.13;;;;;;;10.86;nan;101357.00;4997716;28;20317;-59
2023/03/19 06:56:32;;;;;;;19.65;11.95;;;;;;;10.94;nan;101351.38;4999553;28;20381;-59
2023/03/19 06:58:57;;;;;;;25.60;12.27;;;;;;;11.00;nan;101353.72;4993947;28;20121;-61
2023/03/19 07:01:24;;;;;;;21.05;11.50;;;;;;;10.90;nan;101366.47;4994956;28;20779;-61
2023/03/19 07:03:49;;;;;;;24.38;12.45;;;;;;;10.79;nan;101361.72;5000785;28;20136;-61
2023/03/19 07:06:15;;;;;;;22.67;12.52;;;;;;;10.65;nan;101369.44;4995878;28;20097;-60
2023/03/19 07:08:44;;;;;;;24.17;11.95;;;;;;;10.56;nan;101362.84;5008490;28;20034;-59
2023/03/19 07:11:11;;;;;;;23.45;13.75;;;;;;;10.49;nan;101358.81;5003905;28;20054;-60
2023/03/19 07:13:36;;;;;;;23.33;12.88;;;;;;;10.45;nan;101352.81;4995724;28;20382;-58
2023/03/19 07:16:02;;;;;;;25.10;13.95;;;;;;;10.35;nan;101348.91;5002583;28;20041;-57
2023/03/19 07:18:28;;;;;;;23.10;12.98;;;;;;;10.33;nan;101338.47;4995853;28;20667;-63
2023/03/19 07:20:54;;;;;;;23.17;13.20;;;;;;;10.33;nan;101341.09;4987902;28;20129;-61
2023/03/19 07:23:20;;;;;;;22.98;12.80;;;;;;;10.36;nan;101335.66;4989738;28;20034;-56
2023/03/19 07:25:46;;;;;;;24.23;13.35;;;;;;;10.42;nan;101336.34;4993490;28;20034;-56
2023/03/19 07:28:12;;;;;;;32.88;18.20;;;;;;;10.49;nan;101343.88;4975340;28;20042;-60
2023/03/19 07:30:37;;;;;;;39.15;19.75;;;;;;;10.53;nan;101349.81;4993506;28;20037;-58
2023/03/19 07:33:04;;;;;;;31.38;17.38;;;;;;;10.58;nan;101358.34;4995465;28;20026;-60
2023/03/19 07:35:30;;;;;;;25.35;14.65;;;;;;;10.62;nan;101364.31;4996868;28;20026;-59
2023/03/19 07:37:55;;;;;;;23.60;13.52;;;;;;;10.61;nan;101363.47;4996314;28;20038;-55
2023/03/19 07:40:21;;;;;;;23.27;11.63;;;;;;;10.67;nan;101341.28;4998821;28;20042;-60
2023/03/19 07:42:46;;;;;;;19.92;11.02;;;;;;;10.77;nan;101336.41;4988044;28;20037;-55
2023/03/19 07:45:12;;;;;;;23.15;11.50;;;;;;;10.82;nan;101337.03;4985429;28;20034;-58
2023/03/19 07:47:38;;;;;;;20.85;10.52;;;;;;;10.82;nan;101321.22;4994115;28;20060;-57
2023/03/19 07:50:04;;;;;;;19.17;10.65;;;;;;;10.77;nan;101310.09;4993259;28;20038;-59
2023/03/19 07:52:30;;;;;;;13.02;7.57;;;;;;;10.76;nan;101296.06;4988220;28;20031;-57
2023/03/19 07:54:55;;;;;;;15.68;7.25;;;;;;;10.81;nan;101291.44;4983623;28;20045;-58
2023/03/19 07:57:21;;;;;;;12.85;7.03;;;;;;;10.82;nan;101293.13;4982783;28;20038;-55
2023/03/19 07:59:50;;;;;;;13.45;7.35;;;;;;;10.93;nan;101300.50;4996321;28;20042;-60
2023/03/19 08:02:17;;;;;;;13.20;7.18;;;;;;;10.96;nan;101295.09;4993229;28;20564;-56
2023/03/19 08:04:42;;;;;;;22.88;12.13;;;;;;;10.97;nan;101291.50;4987384;28;20033;-60
2023/03/19 08:07:11;;;;;;;11.43;6.10;;;;;;;11.02;nan;101298.31;5000341;28;20110;-59
2023/03/19 08:09:38;;;;;;;9.60;5.60;;;;;;;11.13;nan;101307.38;4986613;28;20022;-61
2023/03/19 08:12:05;;;;;;;6.45;3.97;;;;;;;11.26;nan;101306.75;5003426;28;20033;-62
2023/03/19 08:14:31;;;;;;;7.25;4.45;;;;;;;11.40;nan;101316.59;5001232;28;20107;-60
2023/03/19 08:16:57;;;;;;;6.13;3.28;;;;;;;11.48;nan;101322.28;4999013;28;20037;-56
2023/03/19 08:19:22;;;;;;;7.90;3.90;;;;;;;11.59;nan;101330.47;5001056;28;20042;-58
2023/03/19 08:21:48;;;;;;;9.05;4.22;;;;;;;11.66;nan;101327.53;4996115;28;20030;-60
2023/03/19 08:24:13;;;;;;;10.73;5.95;;;;;;;11.72;nan;101332.50;4996804;28;20040;-58
2023/03/19 08:26:39;;;;;;;7.45;3.92;;;;;;;11.76;nan;101344.56;4994563;28;20083;-59
2023/03/19 08:29:05;;;;;;;4.78;2.67;;;;;;;11.75;nan;101356.03;4989567;28;20026;-61
2023/03/19 08:31:31;;;;;;;5.32;2.88;;;;;;;11.73;nan;101371.94;4992735;28;20026;-62
2023/03/19 08:33:59;;;;;;;7.55;3.85;;;;;;;11.72;nan;101377.31;4990797;28;20077;-62
2023/03/19 08:36:26;;;;;;;7.18;4.38;;;;;;;11.72;nan;101378.16;4982689;28;20113;-62
2023/03/19 08:38:53;;;;;;;6.43;4.38;;;;;;;11.71;nan;101387.00;5000780;28;20028;-60
2023/03/19 08:41:20;;;;;;;6.95;4.63;;;;;;;11.73;nan;101384.25;5002048;28;20042;-57
2023/03/19 08:43:46;;;;;;;9.23;5.03;;;;;;;11.74;nan;101391.25;4989141;28;20186;-58
2023/03/19 08:46:11;;;;;;;7.13;4.53;;;;;;;11.74;nan;101402.66;4989891;28;20675;-59
2023/03/19 08:48:37;;;;;;;6.90;4.60;;;;;;;11.72;nan;101401.03;4984066;28;20040;-59
2023/03/19 08:51:03;;;;;;;7.15;3.67;;;;;;;11.68;nan;101412.66;4990538;28;20030;-61
2023/03/19 08:53:30;;;;;;;12.95;5.80;;;;;;;11.65;nan;101407.56;4989496;28;20045;-56
2023/03/19 08:55:57;;;;;;;11.38;5.97;;;;;;;11.65;nan;101412.81;4982987;28;20037;-58
2023/03/19 08:58:24;;;;;;;9.80;6.05;;;;;;;11.64;nan;101411.13;4982054;28;20046;-58
2023/03/19 09:00:49;;;;;;;18.20;7.72;;;;;;;11.63;nan;101405.00;4978759;28;20144;-58
2023/03/19 09:03:16;;;;;;;14.60;6.65;;;;;;;11.67;nan;101403.88;4981130;28;20462;-59
2023/03/19 09:05:41;;;;;;;19.67;11.30;;;;;;;11.69;nan;101398.56;4978134;28;20037;-63
2023/03/19 09:08:07;;;;;;;11.10;6.57;;;;;;;11.70;nan;101395.84;4979028;28;20033;-60
2023/03/19 09:10:32;;;;;;;13.00;5.63;;;;;;;11.74;nan;101401.78;4984509;28;21104;-63
2023/03/19 09:12:58;;;;;;;10.43;6.22;;;;;;;11.79;nan;101388.38;4986344;28;20041;-61
2023/03/19 09:15:24;;;;;;;10.85;4.78;;;;;;;11.81;nan;101387.38;4987170;28;20029;-61
2023/03/19 09:17:50;;;;;;;8.10;4.20;;;;;;;11.87;nan;101379.13;4984624;28;20041;-63
2023/03/19 09:20:16;;;;;;;7.90;4.28;;;;;;;11.95;nan;101367.31;4986209;28;20737;-62
2023/03/19 09:22:41;;;;;;;8.30;4.22;;;;;;;12.00;nan;101360.06;4986491;28;20156;-61
2023/03/19 09:25:07;;;;;;;4.85;3.28;;;;;;;12.00;nan;101355.63;4992063;28;20046;-62
2023/03/19 09:27:33;;;;;;;7.53;4.30;;;;;;;12.00;nan;101338.94;4986067;28;21018;-63
2023/03/19 09:29:58;;;;;;;11.30;5.63;;;;;;;12.06;nan;101333.31;4990218;28;20124;-60
2023/03/19 09:32:24;;;;;;;8.77;4.28;;;;;;;12.15;nan;101329.34;4986100;28;21857;-63
2023/03/19 09:34:49;;;;;;;7.78;5.47;;;;;;;12.23;nan;101323.63;4986354;28;20037;-60
2023/03/19 09:37:15;;;;;;;10.05;5.63;;;;;;;12.38;nan;101321.94;4977792;28;20041;-57
2023/03/19 09:39:40;;;;;;;11.20;5.30;;;;;;;12.51;nan;101315.03;4989970;28;20496;-58
2023/03/19 09:42:35;;;;;;;9.52;5.22;;;;;;;12.61;nan;101308.28;4994736;28;20049;-62
2023/03/19 09:45:01;;;;;;;15.75;9.77;;;;;;;12.65;nan;101299.25;4994994;28;20481;-56
2023/03/19 09:47:31;;;;;;;19.50;10.55;;;;;;;12.70;nan;101301.63;4992434;28;20060;-55
2023/03/19 09:50:05;;;;;;;10.63;6.15;;;;;;;12.75;nan;101304.84;4995631;28;20026;-59
2023/03/19 09:52:49;;;;;;;8.63;5.60;;;;;;;12.79;nan;101294.97;4989221;28;20034;-57
2023/03/19 09:55:33;;;;;;;10.88;6.65;;;;;;;12.80;nan;101297.50;4992960;28;20616;-57
2023/03/19 09:57:59;;;;;;;18.08;7.63;;;;;;;12.83;nan;101306.19;4999264;28;20041;-56
2023/03/19 10:00:26;;;;;;;18.17;10.30;;;;;;;12.79;nan;101306.34;4980660;28;20956;-59
2023/03/19 10:02:54;;;;;;;18.65;11.35;;;;;;;12.79;nan;101316.91;4987642;28;20548;-61
2023/03/19 10:05:29;;;;;;;12.77;8.00;;;;;;;12.76;nan;101322.41;4984710;28;20037;-57
2023/03/19 10:08:11;;;;;;;14.68;7.63;;;;;;;12.69;nan;101334.25;4988161;28;20044;-61
2023/03/19 10:10:58;;;;;;;14.50;7.72;;;;;;;12.67;nan;101330.84;4989619;28;20037;-58
2023/03/19 10:13:42;;;;;;;18.80;10.05;;;;;;;12.63;nan;101345.13;4993432;28;20022;-59
2023/03/19 10:16:18;;;;;;;16.00;9.98;;;;;;;12.64;nan;101346.84;4987877;28;20030;-56
2023/03/19 10:18:47;;;;;;;19.73;11.63;;;;;;;12.59;nan;101354.19;4986675;28;20484;-62
2023/03/19 10:21:18;;;;;;;14.77;9.00;;;;;;;12.53;nan;101365.09;4990166;28;20033;-63
2023/03/19 10:24:06;;;;;;;14.15;9.65;;;;;;;12.50;nan;101364.31;4986516;28;20030;-61
2023/03/19 10:26:36;;;;;;;17.02;9.77;;;;;;;12.47;nan;101374.19;4994325;28;20619;-60
2023/03/19 10:29:08;;;;;;;12.10;7.75;;;;;;;12.39;nan;101382.53;4997483;28;20029;-60
2023/03/19 10:31:41;;;;;;;11.02;7.32;;;;;;;12.35;nan;101375.72;4996363;28;20057;-62
2023/03/19 10:34:31;;;;;;;13.75;7.57;;;;;;;12.31;nan;101374.22;4996469;28;20022;-62
2023/03/19 10:37:25;;;;;;;11.57;6.28;;;;;;;12.27;nan;101383.22;4998787;28;20104;-59
2023/03/19 10:39:56;;;;;;;10.20;5.93;;;;;;;12.25;nan;101395.66;4993812;28;20042;-56
2023/03/19 10:42:40;;;;;;;11.52;5.38;;;;;;;12.22;nan;101395.81;4996797;28;20104;-59
2023/03/19 10:45:29;;;;;;;14.07;6.88;;;;;;;12.22;nan;101390.53;4991787;28;20045;-56
2023/03/19 10:47:58;;;;;;;13.35;7.03;;;;;;;12.17;nan;101389.00;4992732;28;20105;-60
2023/03/19 10:50:37;;;;;;;8.50;6.05;;;;;;;12.18;nan;101384.56;4995799;28;20516;-61
2023/03/19 10:53:11;;;;;;;15.00;6.95;;;;;;;12.17;nan;101393.41;4990136;28;20057;-58
2023/03/19 10:55:43;;;;;;;7.57;4.68;;;;;;;12.15;nan;101388.25;5000331;28;20117;-60
2023/03/19 10:58:18;;;;;;;7.70;3.78;;;;;;;12.15;nan;101385.59;4991296;28;20101;-57
2023/03/19 11:00:55;;;;;;;10.30;5.10;;;;;;;12.11;nan;101377.91;4986261;28;20099;-57
2023/03/19 11:03:35;;;;;;;12.55;5.68;;;;;;;12.15;nan;101377.69;5000664;28;20029;-60
2023/03/19 11:06:03;;;;;;;11.25;6.00;;;;;;;12.17;nan;101370.53;5000309;28;20613;-62
2023/03/19 11:08:28;;;;;;;10.43;5.63;;;;;;;12.17;nan;101367.91;4999670;28;20030;-62
2023/03/19 11:10:54;;;;;;;10.30;5.40;;;;;;;12.18;nan;101360.84;4996193;28;20025;-62
2023/03/19 11:13:22;;;;;;;9.75;5.40;;;;;;;12.17;nan;101357.34;4994741;28;20531;-61
2023/03/19 11:15:48;;;;;;;7.07;4.50;;;;;;;12.18;nan;101353.75;4997585;28;20544;-59
2023/03/19 11:18:46;;;;;;;8.80;5.20;;;;;;;12.24;nan;101357.00;4989993;28;20045;-61
2023/03/19 11:21:22;;;;;;;8.27;4.93;;;;;;;12.27;nan;101348.91;4991743;28;20064;-62
2023/03/19 11:23:52;;;;;;;10.82;5.03;;;;;;;12.30;nan;101335.56;4994340;28;20073;-59
2023/03/19 11:26:20;;;;;;;11.40;6.03;;;;;;;12.31;nan;101337.28;4994778;28;20041;-61
2023/03/19 11:28:50;;;;;;;10.75;5.32;;;;;;;12.35;nan;101325.59;4996921;28;20045;-61
2023/03/19 11:31:24;;;;;;;9.52;5.90;;;;;;;12.42;nan;101308.47;4995488;28;20025;-62
2023/03/19 11:34:14;;;;;;;9.52;5.68;;;;;;;12.55;nan;101298.09;4994984;28;20502;-62
2023/03/19 11:37:04;;;;;;;18.85;9.57;;;;;;;12.72;nan;101299.75;4999853;28;22536;-61